Low temp

Not for real navigation. The accuracy of this data is not assured See disclaimer for more information



ICAO NAME COUNTRY WIND Kt GUST Kt VIS m TEMP/DEW C BARO METAR
NZSP Amundsen-Scott South Pole Stat Antarctica 10 0 9999 -48/0 28.50 NZSP 211750Z 11010KT 9999 FEW010 FEW030 SCT080 M48/ A2850 RMK CLN AIR 10009KT ALL WNDS GRID SDG/HDG
UEEE Jakutsk Russia 1 0 550 -41/-46 30.06 UEEE 211830Z 34001KT 0550 0350NE R23L/0900N FG NSC M41/M46 Q1018 R23L/490150 NOSIG RMK QFE755
ESNL Lycksele Sweden 0 0 9999 -30/-34 30.33 ESNL 211850Z AUTO 00000KT 9999 NCD M30/M34 Q1027
UHMM Magadan Russia 0 0 9999 -30/-32 29.85 UHMM 211800Z 00000KT 9999 FEW040 M30/M32 Q1011 RMK QFE743
ZMUB Ulan-Bator Mongolia 1 0 9999 -29/-33 29.88 ZMUB 211900Z VRB01KT 8000NW NSC M29/M33 Q1012 NOSIG RMK QFE652.0 70 NT

Show more